メインページ
METAR-TAF:

METAR-TAF

空港 :

東京国際空港

東京 / 羽田国際空港, 日本

緯度: 35-33N, 経度: 139-47E, 海抜: 5m

現時点の気象観測

当レポートは22分前の07:00(UTC)に作成
変向風 2kt
気温 25°C
湿度 83%
気圧 1012 hPa
視程10km以上
高度1000ftの雲はほとんどない
高度2100ftの千切れ雲あり

METAR: RJTT 200700Z VRB02KT 9999 FEW010 BKN021 25/22 Q1012 BECMG 03008KT RMK 1ST010 7SC021 A2990

時間: 16:22 (07:22 UTC)

予報

当レポートは2時間17分前の05:05(UTC)に作成
予報は20日の 06時(UTC)から 21日の 12時(UTC)まで有効
の風 10kt
視程: 8000m
高度800ftの雲はほとんどない
高度1200ftの千切れ雲あり
20日の 08時(UTC)から 20日の 10時(UTC)まで一時的に
視程: 4000m
高度500ftの雲はほとんどない
高度800ftの千切れ雲あり
弱いにわか雨, 靄
20日の 21時(UTC)から 21日の 03時(UTC)まで一時的に
高度500ftの雲はほとんどない
高度800ftの千切れ雲あり
21日の 03時(UTC)から 21日の 06時(UTC)まで徐々に
の風 10kt

TAF: RJTT 200505Z 2006/2112 36010KT 8000 FEW008 BKN012 TEMPO 2008/2010 4000 -SHRA BR FEW005 BKN008 TEMPO 2021/2103 FEW005 BKN008 BECMG 2103/2106 17010KT

4,000以上の空港の気象観測と天気予報(METAR報とTAF報)

利用可能な観測所は地図上に黄色い丸と赤い丸で示す。

丸の上にカーソルを重ねると観測所名を参照できる。

次にクリックすると気象観測と天気予報を参照できる。

マップの切り替え:黒色「×」印の緑ボタンをクリックして拡大、「-」印の緑ボタンをクリックして縮小、緑色の三角印をクリックして隣りの地図に切り替え


METAR-TAF: